sensor_id;sensor_type;location;lat;lon;timestamp;pressure;altitude;pressure_sealevel;temperature;humidity
12182;BME280;6154;51.550;12.138;2023-07-24T00:02:17;99595.00;;;27.76;41.43
12182;BME280;6154;51.550;12.138;2023-07-24T00:04:46;99592.28;;;27.76;41.35
12182;BME280;6154;51.550;12.138;2023-07-24T00:07:15;99580.16;;;27.72;42.22
12182;BME280;6154;51.550;12.138;2023-07-24T00:09:43;99571.56;;;27.75;41.36
12182;BME280;6154;51.550;12.138;2023-07-24T00:12:11;99570.94;;;27.73;41.36
12182;BME280;6154;51.550;12.138;2023-07-24T00:14:39;99568.22;;;27.73;41.46
12182;BME280;6154;51.550;12.138;2023-07-24T00:17:07;99565.94;;;27.70;41.54
12182;BME280;6154;51.550;12.138;2023-07-24T00:19:35;99567.63;;;27.71;41.75
12182;BME280;6154;51.550;12.138;2023-07-24T00:22:05;99562.84;;;27.66;41.86
12182;BME280;6154;51.550;12.138;2023-07-24T00:24:33;99574.09;;;27.63;41.83
12182;BME280;6154;51.550;12.138;2023-07-24T00:27:02;99571.44;;;27.57;42.28
12182;BME280;6154;51.550;12.138;2023-07-24T00:29:30;99569.34;;;27.52;42.24
12182;BME280;6154;51.550;12.138;2023-07-24T00:31:58;99574.00;;;27.38;43.06
12182;BME280;6154;51.550;12.138;2023-07-24T00:34:27;99570.41;;;27.44;42.35
12182;BME280;6154;51.550;12.138;2023-07-24T00:36:55;99568.25;;;27.60;42.27
12182;BME280;6154;51.550;12.138;2023-07-24T00:39:25;99579.38;;;27.52;42.50
12182;BME280;6154;51.550;12.138;2023-07-24T00:41:56;99571.69;;;27.42;43.03
12182;BME280;6154;51.550;12.138;2023-07-24T00:44:24;99562.69;;;27.41;42.88
12182;BME280;6154;51.550;12.138;2023-07-24T00:46:54;99559.75;;;27.43;42.71
12182;BME280;6154;51.550;12.138;2023-07-24T00:49:23;99556.63;;;27.46;42.49
12182;BME280;6154;51.550;12.138;2023-07-24T00:51:52;99547.66;;;27.39;43.88
12182;BME280;6154;51.550;12.138;2023-07-24T00:54:20;99543.22;;;27.44;42.53
12182;BME280;6154;51.550;12.138;2023-07-24T00:56:51;99543.87;;;27.46;42.42
12182;BME280;6154;51.550;12.138;2023-07-24T00:59:20;99543.87;;;27.46;42.64
12182;BME280;6154;51.550;12.138;2023-07-24T01:01:49;99546.59;;;27.46;42.38
12182;BME280;6154;51.550;12.138;2023-07-24T01:04:18;99551.37;;;27.44;42.51
12182;BME280;6154;51.550;12.138;2023-07-24T01:06:46;99541.56;;;27.43;42.45
12182;BME280;6154;51.550;12.138;2023-07-24T01:09:14;99552.25;;;27.38;42.78
12182;BME280;6154;51.550;12.138;2023-07-24T01:11:45;99545.16;;;27.37;42.72
12182;BME280;6154;51.550;12.138;2023-07-24T01:14:21;99546.84;;;27.32;42.98
12182;BME280;6154;51.550;12.138;2023-07-24T01:16:54;99548.94;;;27.30;44.40
12182;BME280;6154;51.550;12.138;2023-07-24T01:19:34;99542.25;;;27.26;43.38
12182;BME280;6154;51.550;12.138;2023-07-24T01:22:12;99541.41;;;27.25;43.90
12182;BME280;6154;51.550;12.138;2023-07-24T01:25:00;99541.84;;;27.22;43.78
12182;BME280;6154;51.550;12.138;2023-07-24T01:27:30;99541.03;;;27.21;44.78
12182;BME280;6154;51.550;12.138;2023-07-24T01:29:58;99536.03;;;27.12;42.75
12182;BME280;6154;51.550;12.138;2023-07-24T01:32:26;99531.47;;;27.06;42.68
12182;BME280;6154;51.550;12.138;2023-07-24T01:34:55;99528.50;;;27.01;42.64
12182;BME280;6154;51.550;12.138;2023-07-24T01:37:24;99531.00;;;26.96;42.67
12182;BME280;6154;51.550;12.138;2023-07-24T01:39:54;99528.34;;;26.89;42.69
12182;BME280;6154;51.550;12.138;2023-07-24T01:42:24;99527.91;;;26.85;42.92
12182;BME280;6154;51.550;12.138;2023-07-24T01:44:55;99526.88;;;26.80;42.74
12182;BME280;6154;51.550;12.138;2023-07-24T01:47:23;99529.59;;;26.73;43.05
12182;BME280;6154;51.550;12.138;2023-07-24T01:49:51;99530.03;;;26.70;42.99
12182;BME280;6154;51.550;12.138;2023-07-24T01:52:19;99524.38;;;26.65;43.14
12182;BME280;6154;51.550;12.138;2023-07-24T01:54:48;99523.16;;;26.61;43.30
12182;BME280;6154;51.550;12.138;2023-07-24T01:57:16;99515.44;;;26.58;43.22
12182;BME280;6154;51.550;12.138;2023-07-24T01:59:45;99514.63;;;26.57;43.22
12182;BME280;6154;51.550;12.138;2023-07-24T02:02:14;99520.25;;;26.56;43.26
12182;BME280;6154;51.550;12.138;2023-07-24T02:04:43;99522.31;;;26.54;43.44
12182;BME280;6154;51.550;12.138;2023-07-24T02:07:11;99515.00;;;26.54;43.45
12182;BME280;6154;51.550;12.138;2023-07-24T02:09:39;99515.22;;;26.53;43.41
12182;BME280;6154;51.550;12.138;2023-07-24T02:12:07;99506.03;;;26.54;43.38
12182;BME280;6154;51.550;12.138;2023-07-24T02:14:35;99507.50;;;26.56;43.30
12182;BME280;6154;51.550;12.138;2023-07-24T02:17:04;99511.06;;;26.57;43.42
12182;BME280;6154;51.550;12.138;2023-07-24T02:19:33;99506.47;;;26.57;43.48
12182;BME280;6154;51.550;12.138;2023-07-24T02:22:01;99505.63;;;26.57;43.57
12182;BME280;6154;51.550;12.138;2023-07-24T02:24:34;99508.13;;;26.58;43.52
12182;BME280;6154;51.550;12.138;2023-07-24T02:27:04;99511.06;;;26.57;43.63
12182;BME280;6154;51.550;12.138;2023-07-24T02:29:32;99503.53;;;26.59;43.54
12182;BME280;6154;51.550;12.138;2023-07-24T02:32:01;99497.50;;;26.57;43.60
12182;BME280;6154;51.550;12.138;2023-07-24T02:34:29;99494.34;;;26.60;43.65
12182;BME280;6154;51.550;12.138;2023-07-24T02:36:59;99488.69;;;26.61;43.65
12182;BME280;6154;51.550;12.138;2023-07-24T02:39:27;99485.97;;;26.61;43.81
12182;BME280;6154;51.550;12.138;2023-07-24T02:41:55;99492.88;;;26.64;43.75
12182;BME280;6154;51.550;12.138;2023-07-24T02:44:23;99487.44;;;26.64;43.73
12182;BME280;6154;51.550;12.138;2023-07-24T02:46:51;99482.66;;;26.66;43.73
12182;BME280;6154;51.550;12.138;2023-07-24T02:49:19;99483.66;;;26.65;43.77
12182;BME280;6154;51.550;12.138;2023-07-24T02:51:50;99480.75;;;26.67;43.74
12182;BME280;6154;51.550;12.138;2023-07-24T02:54:19;99482.66;;;26.66;43.78
12182;BME280;6154;51.550;12.138;2023-07-24T02:56:47;99482.00;;;26.64;44.04
12182;BME280;6154;51.550;12.138;2023-07-24T02:59:15;99484.09;;;26.62;43.94
12182;BME280;6154;51.550;12.138;2023-07-24T03:01:44;99486.81;;;26.62;43.94
12182;BME280;6154;51.550;12.138;2023-07-24T03:04:12;99494.34;;;26.60;43.95
12182;BME280;6154;51.550;12.138;2023-07-24T03:06:40;99491.00;;;26.58;43.94
12182;BME280;6154;51.550;12.138;2023-07-24T03:09:08;99491.41;;;26.55;43.98
12182;BME280;6154;51.550;12.138;2023-07-24T03:11:39;99486.41;;;26.52;44.02
12182;BME280;6154;51.550;12.138;2023-07-24T03:14:07;99490.19;;;26.51;44.20
12182;BME280;6154;51.550;12.138;2023-07-24T03:16:36;99492.06;;;26.50;44.13
12182;BME280;6154;51.550;12.138;2023-07-24T03:19:04;99492.91;;;26.51;44.06
12182;BME280;6154;51.550;12.138;2023-07-24T03:21:32;99499.16;;;26.51;44.09
12182;BME280;6154;51.550;12.138;2023-07-24T03:24:00;99504.78;;;26.50;44.19
12182;BME280;6154;51.550;12.138;2023-07-24T03:26:28;99497.91;;;26.47;44.17
12182;BME280;6154;51.550;12.138;2023-07-24T03:28:59;99494.38;;;26.47;44.24
12182;BME280;6154;51.550;12.138;2023-07-24T03:31:28;99496.44;;;26.45;44.50
12182;BME280;6154;51.550;12.138;2023-07-24T03:33:56;99496.88;;;26.42;44.54
12182;BME280;6154;51.550;12.138;2023-07-24T03:36:24;99493.53;;;26.40;44.56
12182;BME280;6154;51.550;12.138;2023-07-24T03:38:53;99485.78;;;26.36;44.92
12182;BME280;6154;51.550;12.138;2023-07-24T03:41:21;99496.00;;;26.34;44.62
12182;BME280;6154;51.550;12.138;2023-07-24T03:43:49;99496.00;;;26.34;44.69
12182;BME280;6154;51.550;12.138;2023-07-24T03:46:18;99486.81;;;26.35;44.72
12182;BME280;6154;51.550;12.138;2023-07-24T03:48:46;99489.53;;;26.35;44.79
12182;BME280;6154;51.550;12.138;2023-07-24T03:51:16;99489.53;;;26.35;44.72
12182;BME280;6154;51.550;12.138;2023-07-24T03:53:44;99485.97;;;26.35;44.77
12182;BME280;6154;51.550;12.138;2023-07-24T03:56:13;99486.81;;;26.35;44.83
12182;BME280;6154;51.550;12.138;2023-07-24T03:58:41;99485.97;;;26.35;44.81
12182;BME280;6154;51.550;12.138;2023-07-24T04:01:09;99490.19;;;26.38;44.79
12182;BME280;6154;51.550;12.138;2023-07-24T04:03:39;99488.09;;;26.40;44.85
12182;BME280;6154;51.550;12.138;2023-07-24T04:06:07;99487.50;;;26.38;45.13
12182;BME280;6154;51.550;12.138;2023-07-24T04:08:36;99485.97;;;26.35;45.08
12182;BME280;6154;51.550;12.138;2023-07-24T04:11:04;99484.31;;;26.34;45.07
12182;BME280;6154;51.550;12.138;2023-07-24T04:13:33;99494.12;;;26.35;45.24
12182;BME280;6154;51.550;12.138;2023-07-24T04:16:00;99482.03;;;26.31;45.00
12182;BME280;6154;51.550;12.138;2023-07-24T04:18:29;99485.78;;;26.30;45.00
12182;BME280;6154;51.550;12.138;2023-07-24T04:20:58;99489.94;;;26.32;45.12
12182;BME280;6154;51.550;12.138;2023-07-24T04:23:26;99483.25;;;26.35;45.14
12182;BME280;6154;51.550;12.138;2023-07-24T04:25:55;99482.69;;;26.40;45.20
12182;BME280;6154;51.550;12.138;2023-07-24T04:28:23;99475.56;;;26.45;45.49
12182;BME280;6154;51.550;12.138;2023-07-24T04:30:51;99478.88;;;26.54;45.14
12182;BME280;6154;51.550;12.138;2023-07-24T04:33:19;99474.72;;;26.51;45.62
12182;BME280;6154;51.550;12.138;2023-07-24T04:35:47;99477.44;;;26.58;45.54
12182;BME280;6154;51.550;12.138;2023-07-24T04:38:17;99474.28;;;26.68;45.31
12182;BME280;6154;51.550;12.138;2023-07-24T04:40:45;99473.03;;;26.70;45.70
12182;BME280;6154;51.550;12.138;2023-07-24T04:43:13;99465.06;;;26.75;45.51
12182;BME280;6154;51.550;12.138;2023-07-24T04:45:42;99459.84;;;26.80;45.34
12182;BME280;6154;51.550;12.138;2023-07-24T04:48:10;99451.69;;;26.87;45.23
12182;BME280;6154;51.550;12.138;2023-07-24T04:50:38;99444.53;;;26.92;45.19
12182;BME280;6154;51.550;12.138;2023-07-24T04:53:06;99448.50;;;26.97;45.18
12182;BME280;6154;51.550;12.138;2023-07-24T04:55:36;99447.84;;;27.01;45.22
12182;BME280;6154;51.550;12.138;2023-07-24T04:58:04;99444.50;;;27.12;45.22
12182;BME280;6154;51.550;12.138;2023-07-24T05:00:32;99443.41;;;27.20;45.13
12182;BME280;6154;51.550;12.138;2023-07-24T05:03:00;99423.34;;;27.21;45.24
12182;BME280;6154;51.550;12.138;2023-07-24T05:05:28;99422.28;;;27.22;45.33
12182;BME280;6154;51.550;12.138;2023-07-24T05:07:58;99424.63;;;27.18;45.11
12182;BME280;6154;51.550;12.138;2023-07-24T05:10:26;99426.91;;;27.15;45.16
12182;BME280;6154;51.550;12.138;2023-07-24T05:12:56;99423.59;;;27.13;45.24
12182;BME280;6154;51.550;12.138;2023-07-24T05:15:24;99437.16;;;27.13;45.05
12182;BME280;6154;51.550;12.138;2023-07-24T05:17:52;99440.25;;;27.23;44.79
12182;BME280;6154;51.550;12.138;2023-07-24T05:20:20;99434.66;;;27.18;44.75
12182;BME280;6154;51.550;12.138;2023-07-24T05:22:48;99431.50;;;27.21;44.71
12182;BME280;6154;51.550;12.138;2023-07-24T05:25:17;99422.28;;;27.22;44.66
12182;BME280;6154;51.550;12.138;2023-07-24T05:27:45;99421.84;;;27.25;44.56
12182;BME280;6154;51.550;12.138;2023-07-24T05:30:14;99431.84;;;27.31;44.65
12182;BME280;6154;51.550;12.138;2023-07-24T05:32:43;99421.34;;;27.41;44.49
12182;BME280;6154;51.550;12.138;2023-07-24T05:35:10;99426.34;;;27.44;44.48
12182;BME280;6154;51.550;12.138;2023-07-24T05:37:38;99420.03;;;27.50;44.37
12182;BME280;6154;51.550;12.138;2023-07-24T05:40:07;99422.50;;;27.59;44.17
12182;BME280;6154;51.550;12.138;2023-07-24T05:42:36;99432.09;;;27.61;44.17
12182;BME280;6154;51.550;12.138;2023-07-24T05:45:09;99433.75;;;27.69;44.18
12182;BME280;6154;51.550;12.138;2023-07-24T05:47:39;99424.50;;;27.76;43.97
12182;BME280;6154;51.550;12.138;2023-07-24T05:50:07;99430.31;;;27.80;44.04
12182;BME280;6154;51.550;12.138;2023-07-24T05:52:36;99429.81;;;27.90;43.80
12182;BME280;6154;51.550;12.138;2023-07-24T05:55:05;99429.31;;;27.99;43.65
12182;BME280;6154;51.550;12.138;2023-07-24T05:57:33;99426.75;;;28.04;43.67
12182;BME280;6154;51.550;12.138;2023-07-24T06:00:02;99421.22;;;28.18;43.53
12182;BME280;6154;51.550;12.138;2023-07-24T06:02:38;99422.41;;;28.28;43.40
12182;BME280;6154;51.550;12.138;2023-07-24T06:05:07;99417.28;;;28.39;43.33
12182;BME280;6154;51.550;12.138;2023-07-24T06:07:35;99410.84;;;28.51;43.17
12182;BME280;6154;51.550;12.138;2023-07-24T06:10:04;99411.75;;;28.63;43.09
12182;BME280;6154;51.550;12.138;2023-07-24T06:12:32;99413.41;;;28.83;43.03
12182;BME280;6154;51.550;12.138;2023-07-24T06:15:00;99407.66;;;29.09;42.85
12182;BME280;6154;51.550;12.138;2023-07-24T06:17:28;99407.84;;;29.56;42.51
12182;BME280;6154;51.550;12.138;2023-07-24T06:19:58;99406.87;;;29.92;41.99
12182;BME280;6154;51.550;12.138;2023-07-24T06:22:26;99400.88;;;29.60;42.17
12182;BME280;6154;51.550;12.138;2023-07-24T06:24:54;99409.06;;;29.60;42.15
12182;BME280;6154;51.550;12.138;2023-07-24T06:27:23;99401.94;;;29.59;42.13
12182;BME280;6154;51.550;12.138;2023-07-24T06:29:51;99392.25;;;29.45;42.23
12182;BME280;6154;51.550;12.138;2023-07-24T06:32:28;99398.41;;;29.59;42.14
12182;BME280;6154;51.550;12.138;2023-07-24T06:34:57;99402.47;;;29.80;42.03
12182;BME280;6154;51.550;12.138;2023-07-24T06:37:25;99395.72;;;29.94;41.87
12182;BME280;6154;51.550;12.138;2023-07-24T06:39:53;99388.03;;;30.14;41.69
12182;BME280;6154;51.550;12.138;2023-07-24T06:42:21;99385.06;;;30.39;41.48
12182;BME280;6154;51.550;12.138;2023-07-24T06:45:08;99386.13;;;30.50;41.41
12182;BME280;6154;51.550;12.138;2023-07-24T06:47:55;99387.16;;;30.60;41.21
12182;BME280;6154;51.550;12.138;2023-07-24T06:50:43;99380.06;;;30.59;41.13
12182;BME280;6154;51.550;12.138;2023-07-24T06:53:12;99381.22;;;30.63;41.12
12182;BME280;6154;51.550;12.138;2023-07-24T06:55:41;99373.50;;;30.72;41.07
12182;BME280;6154;51.550;12.138;2023-07-24T06:58:09;99371.09;;;30.87;41.03
12182;BME280;6154;51.550;12.138;2023-07-24T07:00:37;99382.75;;;31.11;40.88
12182;BME280;6154;51.550;12.138;2023-07-24T07:03:05;99379.91;;;31.18;40.83
12182;BME280;6154;51.550;12.138;2023-07-24T07:05:34;99387.62;;;31.21;40.80
12182;BME280;6154;51.550;12.138;2023-07-24T07:08:03;99389.88;;;31.24;40.77
12182;BME280;6154;51.550;12.138;2023-07-24T07:10:32;99382.16;;;31.21;40.62
12182;BME280;6154;51.550;12.138;2023-07-24T07:13:00;99372.97;;;30.99;40.42
12182;BME280;6154;51.550;12.138;2023-07-24T07:15:28;99381.81;;;31.17;40.66
12182;BME280;6154;51.550;12.138;2023-07-24T07:17:56;99384.50;;;31.29;40.56
12182;BME280;6154;51.550;12.138;2023-07-24T07:20:24;99386.03;;;31.37;40.49
12182;BME280;6154;51.550;12.138;2023-07-24T07:22:52;99380.94;;;31.45;40.36
12182;BME280;6154;51.550;12.138;2023-07-24T07:25:22;99384.50;;;31.46;40.30
12182;BME280;6154;51.550;12.138;2023-07-24T07:27:50;99383.22;;;31.49;40.22
12182;BME280;6154;51.550;12.138;2023-07-24T07:30:18;99381.56;;;31.64;40.45
12182;BME280;6154;51.550;12.138;2023-07-24T07:32:46;99380.62;;;31.87;40.33
12182;BME280;6154;51.550;12.138;2023-07-24T07:35:15;99384.16;;;32.04;40.12
12182;BME280;6154;51.550;12.138;2023-07-24T07:37:44;99363.84;;;32.17;39.15
12182;BME280;6154;51.550;12.138;2023-07-24T07:40:12;99373.25;;;32.43;39.70
12182;BME280;6154;51.550;12.138;2023-07-24T07:42:42;99367.59;;;32.72;39.45
12182;BME280;6154;51.550;12.138;2023-07-24T07:45:12;99368.44;;;32.94;38.83
12182;BME280;6154;51.550;12.138;2023-07-24T07:47:40;99375.31;;;33.19;38.32
12182;BME280;6154;51.550;12.138;2023-07-24T07:50:08;99373.53;;;33.34;38.54
12182;BME280;6154;51.550;12.138;2023-07-24T07:52:37;99363.25;;;33.47;38.47
12182;BME280;6154;51.550;12.138;2023-07-24T07:55:06;99373.25;;;33.58;38.44
12182;BME280;6154;51.550;12.138;2023-07-24T07:57:34;99365.84;;;33.58;37.49
12182;BME280;6154;51.550;12.138;2023-07-24T08:00:05;99357.09;;;33.66;38.18
12182;BME280;6154;51.550;12.138;2023-07-24T08:02:33;99353.84;;;33.69;37.41
12182;BME280;6154;51.550;12.138;2023-07-24T08:05:02;99360.87;;;33.87;38.20
12182;BME280;6154;51.550;12.138;2023-07-24T08:07:42;99353.47;;;33.88;37.72
12182;BME280;6154;51.550;12.138;2023-07-24T08:10:10;99341.97;;;33.59;38.00
12182;BME280;6154;51.550;12.138;2023-07-24T08:12:42;99335.03;;;33.51;37.92
12182;BME280;6154;51.550;12.138;2023-07-24T08:15:12;99333.66;;;33.54;37.69
12182;BME280;6154;51.550;12.138;2023-07-24T08:17:40;99336.84;;;33.72;37.81
12182;BME280;6154;51.550;12.138;2023-07-24T08:20:09;99314.50;;;33.96;37.45
12182;BME280;6154;51.550;12.138;2023-07-24T08:22:37;99319.00;;;34.12;37.38
12182;BME280;6154;51.550;12.138;2023-07-24T08:25:06;99311.62;;;34.18;37.13
12182;BME280;6154;51.550;12.138;2023-07-24T08:27:34;99316.59;;;34.21;36.07
12182;BME280;6154;51.550;12.138;2023-07-24T08:30:22;99304.81;;;34.30;37.07
12182;BME280;6154;51.550;12.138;2023-07-24T08:32:50;99307.41;;;34.52;36.71
12182;BME280;6154;51.550;12.138;2023-07-24T08:35:18;99302.19;;;34.56;36.85
12182;BME280;6154;51.550;12.138;2023-07-24T08:37:46;99304.91;;;34.46;36.39
12182;BME280;6154;51.550;12.138;2023-07-24T08:40:15;99304.28;;;34.34;36.89
12182;BME280;6154;51.550;12.138;2023-07-24T08:42:43;99305.50;;;34.48;36.75
12182;BME280;6154;51.550;12.138;2023-07-24T08:45:12;99297.28;;;34.63;36.55
12182;BME280;6154;51.550;12.138;2023-07-24T08:47:43;99297.34;;;34.78;36.28
12182;BME280;6154;51.550;12.138;2023-07-24T08:50:12;99293.50;;;34.84;35.05
12182;BME280;6154;51.550;12.138;2023-07-24T08:52:42;99290.19;;;34.82;36.09
12182;BME280;6154;51.550;12.138;2023-07-24T08:55:12;99292.66;;;34.84;36.09
12182;BME280;6154;51.550;12.138;2023-07-24T08:57:40;99300.72;;;35.01;36.05
12182;BME280;6154;51.550;12.138;2023-07-24T09:00:09;99301.00;;;35.14;35.62
12182;BME280;6154;51.550;12.138;2023-07-24T09:02:37;99291.97;;;35.39;35.84
12182;BME280;6154;51.550;12.138;2023-07-24T09:05:08;99297.75;;;35.53;35.24
12182;BME280;6154;51.550;12.138;2023-07-24T09:07:37;99291.97;;;35.39;35.17
12182;BME280;6154;51.550;12.138;2023-07-24T09:10:06;99281.25;;;35.38;35.47
12182;BME280;6154;51.550;12.138;2023-07-24T09:12:37;99280.91;;;35.85;34.80
12182;BME280;6154;51.550;12.138;2023-07-24T09:15:10;99263.25;;;35.86;35.11
12182;BME280;6154;51.550;12.138;2023-07-24T09:17:47;99260.44;;;36.17;34.94
12182;BME280;6154;51.550;12.138;2023-07-24T09:20:17;99248.28;;;36.38;31.26
12182;BME280;6154;51.550;12.138;2023-07-24T09:22:58;99254.81;;;36.52;33.71
12182;BME280;6154;51.550;12.138;2023-07-24T09:25:30;99260.72;;;36.85;34.21
12182;BME280;6154;51.550;12.138;2023-07-24T09:27:58;99264.22;;;37.01;33.54
12182;BME280;6154;51.550;12.138;2023-07-24T09:30:26;99268.31;;;37.03;33.79
12182;BME280;6154;51.550;12.138;2023-07-24T09:32:55;99254.37;;;36.84;33.27
12182;BME280;6154;51.550;12.138;2023-07-24T09:35:24;99255.66;;;36.97;33.83
12182;BME280;6154;51.550;12.138;2023-07-24T09:38:02;99242.88;;;36.67;32.99
12182;BME280;6154;51.550;12.138;2023-07-24T09:40:38;99259.28;;;36.33;30.07
12182;BME280;6154;51.550;12.138;2023-07-24T09:43:16;99257.72;;;36.12;30.63
12182;BME280;6154;51.550;12.138;2023-07-24T09:46:04;99252.78;;;36.04;30.90
12182;BME280;6154;51.550;12.138;2023-07-24T09:48:34;99241.13;;;36.27;33.53
12182;BME280;6154;51.550;12.138;2023-07-24T09:51:08;99232.22;;;36.50;32.41
12182;BME280;6154;51.550;12.138;2023-07-24T09:53:43;99240.59;;;36.79;32.76
12182;BME280;6154;51.550;12.138;2023-07-24T09:56:14;99247.94;;;36.99;31.03
12182;BME280;6154;51.550;12.138;2023-07-24T09:58:44;99237.38;;;37.06;32.91
12182;BME280;6154;51.550;12.138;2023-07-24T10:01:12;99243.78;;;37.02;32.50
12182;BME280;6154;51.550;12.138;2023-07-24T10:03:49;99239.59;;;37.04;32.75
12182;BME280;6154;51.550;12.138;2023-07-24T10:06:20;99232.06;;;37.15;29.59
12182;BME280;6154;51.550;12.138;2023-07-24T10:08:49;99229.66;;;37.43;32.02
12182;BME280;6154;51.550;12.138;2023-07-24T10:11:18;99227.03;;;37.56;32.74
12182;BME280;6154;51.550;12.138;2023-07-24T10:13:47;99219.72;;;37.71;32.61
12182;BME280;6154;51.550;12.138;2023-07-24T10:16:16;99216.94;;;37.71;32.46
12182;BME280;6154;51.550;12.138;2023-07-24T10:18:45;99209.78;;;37.69;32.13
12182;BME280;6154;51.550;12.138;2023-07-24T10:21:14;99211.38;;;37.76;32.25
12182;BME280;6154;51.550;12.138;2023-07-24T10:23:45;99205.09;;;37.94;32.21
12182;BME280;6154;51.550;12.138;2023-07-24T10:26:14;99202.16;;;38.09;31.49
12182;BME280;6154;51.550;12.138;2023-07-24T10:28:47;99194.59;;;38.15;31.84
12182;BME280;6154;51.550;12.138;2023-07-24T10:31:20;99193.06;;;38.28;30.26
12182;BME280;6154;51.550;12.138;2023-07-24T10:33:49;99187.94;;;38.40;28.98
12182;BME280;6154;51.550;12.138;2023-07-24T10:36:19;99185.34;;;38.48;31.49
12182;BME280;6154;51.550;12.138;2023-07-24T10:38:53;99181.50;;;38.44;31.48
12182;BME280;6154;51.550;12.138;2023-07-24T10:41:22;99176.06;;;38.39;29.06
12182;BME280;6154;51.550;12.138;2023-07-24T10:44:02;99175.09;;;38.49;31.56
12182;BME280;6154;51.550;12.138;2023-07-24T10:46:35;99173.66;;;38.33;30.89
12182;BME280;6154;51.550;12.138;2023-07-24T10:49:04;99172.91;;;38.27;28.51
12182;BME280;6154;51.550;12.138;2023-07-24T10:51:33;99172.03;;;38.50;31.09
12182;BME280;6154;51.550;12.138;2023-07-24T10:54:05;99164.44;;;38.56;31.09
12182;BME280;6154;51.550;12.138;2023-07-24T10:56:36;99165.38;;;38.51;30.80
12182;BME280;6154;51.550;12.138;2023-07-24T10:59:05;99163.28;;;38.43;30.06
12182;BME280;6154;51.550;12.138;2023-07-24T11:01:33;99155.28;;;38.23;30.99
12182;BME280;6154;51.550;12.138;2023-07-24T11:04:02;99148.56;;;38.05;31.08
12182;BME280;6154;51.550;12.138;2023-07-24T11:06:31;99136.91;;;38.08;31.13
12182;BME280;6154;51.550;12.138;2023-07-24T11:08:59;99143.31;;;38.28;31.25
12182;BME280;6154;51.550;12.138;2023-07-24T11:11:29;99133.03;;;38.66;30.86
12182;BME280;6154;51.550;12.138;2023-07-24T11:14:01;99134.53;;;38.77;30.24
12182;BME280;6154;51.550;12.138;2023-07-24T11:16:29;99133.72;;;38.58;30.38
12182;BME280;6154;51.550;12.138;2023-07-24T11:18:59;99125.88;;;38.65;30.46
12182;BME280;6154;51.550;12.138;2023-07-24T11:21:27;99131.19;;;38.61;30.42
12182;BME280;6154;51.550;12.138;2023-07-24T11:23:57;99123.78;;;38.75;30.54
12182;BME280;6154;51.550;12.138;2023-07-24T11:26:26;99126.69;;;38.65;29.51
12182;BME280;6154;51.550;12.138;2023-07-24T11:28:56;99122.78;;;38.66;30.27
12182;BME280;6154;51.550;12.138;2023-07-24T11:31:24;99115.91;;;38.83;30.17
12182;BME280;6154;51.550;12.138;2023-07-24T11:33:53;99122.72;;;38.90;30.22
12182;BME280;6154;51.550;12.138;2023-07-24T11:36:22;99122.53;;;39.00;30.22
12182;BME280;6154;51.550;12.138;2023-07-24T11:38:50;99116.81;;;39.10;28.66
12182;BME280;6154;51.550;12.138;2023-07-24T11:41:18;99114.19;;;39.33;29.81
12182;BME280;6154;51.550;12.138;2023-07-24T11:43:48;99111.75;;;39.31;28.85
12182;BME280;6154;51.550;12.138;2023-07-24T11:46:24;99098.81;;;39.54;29.37
12182;BME280;6154;51.550;12.138;2023-07-24T11:48:53;99106.41;;;39.76;26.59
12182;BME280;6154;51.550;12.138;2023-07-24T11:51:26;99107.47;;;39.80;28.59
12182;BME280;6154;51.550;12.138;2023-07-24T11:54:07;99115.19;;;39.09;27.75
12182;BME280;6154;51.550;12.138;2023-07-24T11:56:35;99110.34;;;38.69;26.13
12182;BME280;6154;51.550;12.138;2023-07-24T11:59:11;99106.97;;;38.53;29.47
12182;BME280;6154;51.550;12.138;2023-07-24T12:01:41;99090.31;;;38.20;27.72
12182;BME280;6154;51.550;12.138;2023-07-24T12:04:10;99099.25;;;38.12;29.96
12182;BME280;6154;51.550;12.138;2023-07-24T12:06:38;99098.06;;;38.00;29.70
12182;BME280;6154;51.550;12.138;2023-07-24T12:09:07;99090.66;;;37.95;29.82
12182;BME280;6154;51.550;12.138;2023-07-24T12:11:39;99086.41;;;38.03;29.76
12182;BME280;6154;51.550;12.138;2023-07-24T12:14:12;99087.44;;;38.07;28.63
12182;BME280;6154;51.550;12.138;2023-07-24T12:16:42;99082.00;;;37.83;29.99
12182;BME280;6154;51.550;12.138;2023-07-24T12:19:10;99077.81;;;37.61;29.62
12182;BME280;6154;51.550;12.138;2023-07-24T12:21:39;99074.41;;;37.69;29.93
12182;BME280;6154;51.550;12.138;2023-07-24T12:24:07;99065.00;;;37.71;29.98
12182;BME280;6154;51.550;12.138;2023-07-24T12:26:35;99059.00;;;37.63;29.89
12182;BME280;6154;51.550;12.138;2023-07-24T12:29:03;99054.72;;;37.52;30.06
12182;BME280;6154;51.550;12.138;2023-07-24T12:31:32;99057.75;;;37.32;30.02
12182;BME280;6154;51.550;12.138;2023-07-24T12:34:02;99056.75;;;37.18;30.12
12182;BME280;6154;51.550;12.138;2023-07-24T12:36:30;99056.16;;;36.97;30.17
12182;BME280;6154;51.550;12.138;2023-07-24T12:38:58;99048.41;;;36.70;30.33
12182;BME280;6154;51.550;12.138;2023-07-24T12:41:26;99054.00;;;36.60;30.26
12182;BME280;6154;51.550;12.138;2023-07-24T12:43:55;99058.06;;;36.38;30.32
12182;BME280;6154;51.550;12.138;2023-07-24T12:46:23;99063.69;;;36.18;30.44
12182;BME280;6154;51.550;12.138;2023-07-24T12:48:51;99051.72;;;35.83;30.40
12182;BME280;6154;51.550;12.138;2023-07-24T12:51:21;99051.06;;;35.52;30.58
12182;BME280;6154;51.550;12.138;2023-07-24T12:53:49;99054.44;;;35.29;30.58
12182;BME280;6154;51.550;12.138;2023-07-24T12:56:37;99053.66;;;35.08;30.96
12182;BME280;6154;51.550;12.138;2023-07-24T12:59:06;99050.66;;;34.74;31.02
12182;BME280;6154;51.550;12.138;2023-07-24T13:01:34;99052.88;;;34.62;31.33
12182;BME280;6154;51.550;12.138;2023-07-24T13:04:02;99044.62;;;34.51;31.56
12182;BME280;6154;51.550;12.138;2023-07-24T13:06:32;99040.72;;;34.37;31.80
12182;BME280;6154;51.550;12.138;2023-07-24T13:09:00;99032.75;;;34.25;32.01
12182;BME280;6154;51.550;12.138;2023-07-24T13:11:28;99034.97;;;34.34;31.95
12182;BME280;6154;51.550;12.138;2023-07-24T13:13:57;99033.34;;;34.63;31.95